Angelica, New York
Current Conditions -  °F | °C
As of 3:56 AM on Thursday 23 Oct 2014 (Local Time) from KELZ Reporting Station
Overcast Overcast  
Wind Chill:   Ceiling: 900
Heat Index:   Visibility: 10mi
Dew Point:   Wind: 8mph
Humidity: 85%   Direction: 360°N
Pressure: 30.05"   Gusts: 20mph
Location:  42.31°N, 78.02°W
Report Text: KELZ 230756Z AUTO 36007G17KT 10SM OVC009 06/03 A3005 RMK AO2 CIG 008V012 SLP190 T00560033
Loading
Personal Weather Stations






























Interactive Weather Map
Tropical Storm Tracking
New forecast layout! Learn more

10-Day Weather Forecast

Advertisements
Track Severe Weather on mobile